sensor_id;sensor_type;location;lat;lon;timestamp;temperature;humidity
47618;DHT22;33336;36.728;-4.414;2023-08-06T00:01:32;28.50;90.40
47618;DHT22;33336;36.728;-4.414;2023-08-06T00:06:35;28.40;90.80
47618;DHT22;33336;36.728;-4.414;2023-08-06T00:11:38;28.20;91.20
47618;DHT22;33336;36.728;-4.414;2023-08-06T00:16:44;27.80;91.70
47618;DHT22;33336;36.728;-4.414;2023-08-06T00:21:48;27.60;92.60
47618;DHT22;33336;36.728;-4.414;2023-08-06T00:26:50;27.50;92.90
47618;DHT22;33336;36.728;-4.414;2023-08-06T00:31:55;27.70;93.00
47618;DHT22;33336;36.728;-4.414;2023-08-06T00:36:58;27.70;93.10
47618;DHT22;33336;36.728;-4.414;2023-08-06T00:42:02;28.30;92.40
47618;DHT22;33336;36.728;-4.414;2023-08-06T00:47:07;28.10;92.40
47618;DHT22;33336;36.728;-4.414;2023-08-06T00:52:11;28.30;92.40
47618;DHT22;33336;36.728;-4.414;2023-08-06T00:57:14;28.40;90.30
47618;DHT22;33336;36.728;-4.414;2023-08-06T01:02:19;28.40;87.70
47618;DHT22;33336;36.728;-4.414;2023-08-06T01:07:41;28.50;86.30
47618;DHT22;33336;36.728;-4.414;2023-08-06T01:12:54;28.40;86.80
47618;DHT22;33336;36.728;-4.414;2023-08-06T01:18:01;28.10;86.30
47618;DHT22;33336;36.728;-4.414;2023-08-06T01:23:05;27.80;86.70
47618;DHT22;33336;36.728;-4.414;2023-08-06T01:28:14;27.50;87.60
47618;DHT22;33336;36.728;-4.414;2023-08-06T01:33:21;27.70;86.50
47618;DHT22;33336;36.728;-4.414;2023-08-06T01:38:26;27.70;86.80
47618;DHT22;33336;36.728;-4.414;2023-08-06T01:43:31;27.80;86.10
47618;DHT22;33336;36.728;-4.414;2023-08-06T01:48:33;28.00;85.60
47618;DHT22;33336;36.728;-4.414;2023-08-06T01:53:38;28.30;85.20
47618;DHT22;33336;36.728;-4.414;2023-08-06T01:58:40;28.40;85.00
47618;DHT22;33336;36.728;-4.414;2023-08-06T02:03:44;28.30;84.70
47618;DHT22;33336;36.728;-4.414;2023-08-06T02:08:48;28.40;84.70
47618;DHT22;33336;36.728;-4.414;2023-08-06T02:13:51;27.70;85.10
47618;DHT22;33336;36.728;-4.414;2023-08-06T02:18:53;27.70;84.70
47618;DHT22;33336;36.728;-4.414;2023-08-06T02:23:58;27.80;84.40
47618;DHT22;33336;36.728;-4.414;2023-08-06T02:29:01;27.90;83.90
47618;DHT22;33336;36.728;-4.414;2023-08-06T02:34:04;27.60;84.60
47618;DHT22;33336;36.728;-4.414;2023-08-06T02:39:08;27.50;84.70
47618;DHT22;33336;36.728;-4.414;2023-08-06T02:44:10;27.70;84.20
47618;DHT22;33336;36.728;-4.414;2023-08-06T02:49:13;27.40;84.70
47618;DHT22;33336;36.728;-4.414;2023-08-06T02:54:18;27.60;84.40
47618;DHT22;33336;36.728;-4.414;2023-08-06T02:59:21;27.90;83.80
47618;DHT22;33336;36.728;-4.414;2023-08-06T03:04:25;28.10;83.20
47618;DHT22;33336;36.728;-4.414;2023-08-06T03:09:29;28.10;82.70
47618;DHT22;33336;36.728;-4.414;2023-08-06T03:14:33;27.90;83.00
47618;DHT22;33336;36.728;-4.414;2023-08-06T03:19:35;27.90;82.80
47618;DHT22;33336;36.728;-4.414;2023-08-06T03:24:40;27.70;83.30
47618;DHT22;33336;36.728;-4.414;2023-08-06T03:29:42;27.70;83.30
47618;DHT22;33336;36.728;-4.414;2023-08-06T03:34:45;27.70;84.30
47618;DHT22;33336;36.728;-4.414;2023-08-06T03:39:50;27.80;84.20
47618;DHT22;33336;36.728;-4.414;2023-08-06T03:44:52;27.40;84.60
47618;DHT22;33336;36.728;-4.414;2023-08-06T03:49:56;27.00;85.80
47618;DHT22;33336;36.728;-4.414;2023-08-06T03:55:00;27.40;85.30
47618;DHT22;33336;36.728;-4.414;2023-08-06T04:00:04;27.60;84.50
47618;DHT22;33336;36.728;-4.414;2023-08-06T04:05:08;27.50;84.30
47618;DHT22;33336;36.728;-4.414;2023-08-06T04:10:12;27.80;83.90
47618;DHT22;33336;36.728;-4.414;2023-08-06T04:15:15;27.50;84.30
47618;DHT22;33336;36.728;-4.414;2023-08-06T04:20:18;27.30;84.40
47618;DHT22;33336;36.728;-4.414;2023-08-06T04:25:22;26.90;85.20
47618;DHT22;33336;36.728;-4.414;2023-08-06T04:30:26;26.70;85.60
47618;DHT22;33336;36.728;-4.414;2023-08-06T04:35:28;26.90;85.50
47618;DHT22;33336;36.728;-4.414;2023-08-06T04:40:34;27.10;85.10
47618;DHT22;33336;36.728;-4.414;2023-08-06T04:45:37;26.70;86.50
47618;DHT22;33336;36.728;-4.414;2023-08-06T04:50:43;26.90;85.60
47618;DHT22;33336;36.728;-4.414;2023-08-06T04:55:48;27.10;85.30
47618;DHT22;33336;36.728;-4.414;2023-08-06T05:00:50;27.40;85.10
47618;DHT22;33336;36.728;-4.414;2023-08-06T05:05:53;27.30;85.20
47618;DHT22;33336;36.728;-4.414;2023-08-06T05:10:58;27.30;85.10
47618;DHT22;33336;36.728;-4.414;2023-08-06T05:16:01;27.10;85.40
47618;DHT22;33336;36.728;-4.414;2023-08-06T05:21:05;27.30;85.40
47618;DHT22;33336;36.728;-4.414;2023-08-06T05:26:09;27.00;85.60
47618;DHT22;33336;36.728;-4.414;2023-08-06T05:31:12;27.10;85.50
47618;DHT22;33336;36.728;-4.414;2023-08-06T05:36:14;27.40;85.30
47618;DHT22;33336;36.728;-4.414;2023-08-06T05:41:21;27.40;85.40
47618;DHT22;33336;36.728;-4.414;2023-08-06T05:46:24;27.50;85.20
47618;DHT22;33336;36.728;-4.414;2023-08-06T05:51:28;27.40;85.70
47618;DHT22;33336;36.728;-4.414;2023-08-06T05:56:32;27.50;85.40
47618;DHT22;33336;36.728;-4.414;2023-08-06T06:01:34;27.30;85.40
47618;DHT22;33336;36.728;-4.414;2023-08-06T06:06:37;27.30;85.70
47618;DHT22;33336;36.728;-4.414;2023-08-06T06:11:42;27.50;85.30
47618;DHT22;33336;36.728;-4.414;2023-08-06T06:16:45;27.50;85.20
47618;DHT22;33336;36.728;-4.414;2023-08-06T06:21:47;27.60;84.90
47618;DHT22;33336;36.728;-4.414;2023-08-06T06:26:52;27.80;84.80
47618;DHT22;33336;36.728;-4.414;2023-08-06T06:31:56;27.90;84.70
47618;DHT22;33336;36.728;-4.414;2023-08-06T06:36:58;27.80;84.70
47618;DHT22;33336;36.728;-4.414;2023-08-06T06:42:03;27.60;85.00
47618;DHT22;33336;36.728;-4.414;2023-08-06T06:47:06;27.40;85.40
47618;DHT22;33336;36.728;-4.414;2023-08-06T06:52:10;27.90;85.00
47618;DHT22;33336;36.728;-4.414;2023-08-06T06:57:14;28.10;84.40
47618;DHT22;33336;36.728;-4.414;2023-08-06T07:02:17;28.20;84.10
47618;DHT22;33336;36.728;-4.414;2023-08-06T07:07:20;27.90;84.50
47618;DHT22;33336;36.728;-4.414;2023-08-06T07:12:24;27.70;84.70
47618;DHT22;33336;36.728;-4.414;2023-08-06T07:17:27;27.30;85.20
47618;DHT22;33336;36.728;-4.414;2023-08-06T07:22:31;27.60;84.10
47618;DHT22;33336;36.728;-4.414;2023-08-06T07:27:35;27.50;82.70
47618;DHT22;33336;36.728;-4.414;2023-08-06T07:32:38;27.80;82.40
47618;DHT22;33336;36.728;-4.414;2023-08-06T07:37:41;28.50;81.90
47618;DHT22;33336;36.728;-4.414;2023-08-06T07:42:46;28.40;81.90
47618;DHT22;33336;36.728;-4.414;2023-08-06T07:47:49;28.30;81.80
47618;DHT22;33336;36.728;-4.414;2023-08-06T07:52:52;28.30;81.90
47618;DHT22;33336;36.728;-4.414;2023-08-06T07:57:56;28.30;82.40
47618;DHT22;33336;36.728;-4.414;2023-08-06T08:02:59;28.20;83.70
47618;DHT22;33336;36.728;-4.414;2023-08-06T08:08:02;28.00;85.40
47618;DHT22;33336;36.728;-4.414;2023-08-06T08:13:07;28.00;85.30
47618;DHT22;33336;36.728;-4.414;2023-08-06T08:18:09;28.50;84.40
47618;DHT22;33336;36.728;-4.414;2023-08-06T08:23:13;28.70;83.90
47618;DHT22;33336;36.728;-4.414;2023-08-06T08:28:18;28.60;84.20
47618;DHT22;33336;36.728;-4.414;2023-08-06T08:33:22;28.60;83.70
47618;DHT22;33336;36.728;-4.414;2023-08-06T08:38:25;28.90;84.20
47618;DHT22;33336;36.728;-4.414;2023-08-06T08:43:29;28.60;83.40
47618;DHT22;33336;36.728;-4.414;2023-08-06T08:48:33;28.40;83.80
47618;DHT22;33336;36.728;-4.414;2023-08-06T08:53:37;28.60;83.60
47618;DHT22;33336;36.728;-4.414;2023-08-06T08:58:42;28.70;83.00
47618;DHT22;33336;36.728;-4.414;2023-08-06T09:03:46;29.20;82.70
47618;DHT22;33336;36.728;-4.414;2023-08-06T09:08:53;28.90;82.20
47618;DHT22;33336;36.728;-4.414;2023-08-06T09:14:00;28.60;81.70
47618;DHT22;33336;36.728;-4.414;2023-08-06T09:19:08;28.50;80.30
47618;DHT22;33336;36.728;-4.414;2023-08-06T09:24:11;28.90;78.90
47618;DHT22;33336;36.728;-4.414;2023-08-06T09:29:16;29.00;77.40
47618;DHT22;33336;36.728;-4.414;2023-08-06T09:34:20;28.90;78.10
47618;DHT22;33336;36.728;-4.414;2023-08-06T09:39:27;28.90;77.50
47618;DHT22;33336;36.728;-4.414;2023-08-06T09:44:32;28.90;77.30
47618;DHT22;33336;36.728;-4.414;2023-08-06T09:49:41;29.20;77.20
47618;DHT22;33336;36.728;-4.414;2023-08-06T09:54:48;29.10;77.60
47618;DHT22;33336;36.728;-4.414;2023-08-06T09:59:53;29.00;76.90
47618;DHT22;33336;36.728;-4.414;2023-08-06T10:04:57;28.90;77.40
47618;DHT22;33336;36.728;-4.414;2023-08-06T10:10:03;29.00;79.10
47618;DHT22;33336;36.728;-4.414;2023-08-06T10:15:10;29.00;79.90
47618;DHT22;33336;36.728;-4.414;2023-08-06T10:20:13;29.20;81.50
47618;DHT22;33336;36.728;-4.414;2023-08-06T10:25:17;29.20;81.60
47618;DHT22;33336;36.728;-4.414;2023-08-06T10:30:26;28.80;82.20
47618;DHT22;33336;36.728;-4.414;2023-08-06T10:35:35;29.10;82.50
47618;DHT22;33336;36.728;-4.414;2023-08-06T10:40:39;29.50;83.00
47618;DHT22;33336;36.728;-4.414;2023-08-06T10:45:50;29.50;82.40
47618;DHT22;33336;36.728;-4.414;2023-08-06T10:50:53;29.80;83.70
47618;DHT22;33336;36.728;-4.414;2023-08-06T10:55:57;29.70;84.40
47618;DHT22;33336;36.728;-4.414;2023-08-06T11:01:02;29.60;84.70
47618;DHT22;33336;36.728;-4.414;2023-08-06T11:06:07;29.50;85.00
47618;DHT22;33336;36.728;-4.414;2023-08-06T11:11:11;30.00;83.30
47618;DHT22;33336;36.728;-4.414;2023-08-06T11:16:17;30.10;83.00
47618;DHT22;33336;36.728;-4.414;2023-08-06T11:21:21;30.00;81.80
47618;DHT22;33336;36.728;-4.414;2023-08-06T11:26:25;30.20;81.10
47618;DHT22;33336;36.728;-4.414;2023-08-06T11:31:31;30.30;81.00
47618;DHT22;33336;36.728;-4.414;2023-08-06T11:36:37;30.20;80.40
47618;DHT22;33336;36.728;-4.414;2023-08-06T11:41:42;31.00;79.80
47618;DHT22;33336;36.728;-4.414;2023-08-06T11:46:54;31.30;79.10
47618;DHT22;33336;36.728;-4.414;2023-08-06T11:51:57;31.90;79.50
47618;DHT22;33336;36.728;-4.414;2023-08-06T11:57:00;31.50;81.30
47618;DHT22;33336;36.728;-4.414;2023-08-06T12:02:07;31.30;82.00
47618;DHT22;33336;36.728;-4.414;2023-08-06T12:07:12;30.70;85.30
47618;DHT22;33336;36.728;-4.414;2023-08-06T12:12:15;31.10;86.90
47618;DHT22;33336;36.728;-4.414;2023-08-06T12:17:20;31.50;86.10
47618;DHT22;33336;36.728;-4.414;2023-08-06T12:22:22;32.20;86.20
47618;DHT22;33336;36.728;-4.414;2023-08-06T12:27:25;32.10;84.10
47618;DHT22;33336;36.728;-4.414;2023-08-06T12:32:29;32.30;84.10
47618;DHT22;33336;36.728;-4.414;2023-08-06T12:37:32;32.70;84.00
47618;DHT22;33336;36.728;-4.414;2023-08-06T12:42:35;32.60;84.70
47618;DHT22;33336;36.728;-4.414;2023-08-06T12:47:40;33.10;83.00
47618;DHT22;33336;36.728;-4.414;2023-08-06T12:52:43;33.50;84.20
47618;DHT22;33336;36.728;-4.414;2023-08-06T12:57:46;32.50;83.10
47618;DHT22;33336;36.728;-4.414;2023-08-06T13:02:51;32.00;84.40
47618;DHT22;33336;36.728;-4.414;2023-08-06T13:07:53;33.20;84.50
47618;DHT22;33336;36.728;-4.414;2023-08-06T13:12:56;33.30;84.60
47618;DHT22;33336;36.728;-4.414;2023-08-06T13:18:01;32.80;85.70
47618;DHT22;33336;36.728;-4.414;2023-08-06T13:23:04;32.90;83.60
47618;DHT22;33336;36.728;-4.414;2023-08-06T13:28:07;32.80;82.40
47618;DHT22;33336;36.728;-4.414;2023-08-06T13:33:11;32.90;82.10
47618;DHT22;33336;36.728;-4.414;2023-08-06T13:38:14;32.50;80.40
47618;DHT22;33336;36.728;-4.414;2023-08-06T13:43:17;32.60;83.40
47618;DHT22;33336;36.728;-4.414;2023-08-06T13:48:22;32.90;83.10
47618;DHT22;33336;36.728;-4.414;2023-08-06T13:53:25;33.30;81.50
47618;DHT22;33336;36.728;-4.414;2023-08-06T13:58:31;34.80;79.20
47618;DHT22;33336;36.728;-4.414;2023-08-06T14:03:36;34.30;80.60
47618;DHT22;33336;36.728;-4.414;2023-08-06T14:08:38;34.00;80.80
47618;DHT22;33336;36.728;-4.414;2023-08-06T14:13:41;34.90;81.30
47618;DHT22;33336;36.728;-4.414;2023-08-06T14:18:46;34.20;82.20
47618;DHT22;33336;36.728;-4.414;2023-08-06T14:23:48;34.00;82.60
47618;DHT22;33336;36.728;-4.414;2023-08-06T14:28:51;34.40;82.40
47618;DHT22;33336;36.728;-4.414;2023-08-06T14:33:57;34.60;80.70
47618;DHT22;33336;36.728;-4.414;2023-08-06T14:39:01;35.00;81.40
47618;DHT22;33336;36.728;-4.414;2023-08-06T14:44:04;33.90;81.90
47618;DHT22;33336;36.728;-4.414;2023-08-06T14:49:18;34.10;82.90
47618;DHT22;33336;36.728;-4.414;2023-08-06T14:54:24;34.40;81.90
47618;DHT22;33336;36.728;-4.414;2023-08-06T14:59:27;34.60;80.80
47618;DHT22;33336;36.728;-4.414;2023-08-06T15:04:37;36.20;79.20
47618;DHT22;33336;36.728;-4.414;2023-08-06T15:09:40;35.40;79.80
47618;DHT22;33336;36.728;-4.414;2023-08-06T15:14:43;35.80;79.00
47618;DHT22;33336;36.728;-4.414;2023-08-06T15:19:47;35.00;78.40
47618;DHT22;33336;36.728;-4.414;2023-08-06T15:24:50;37.10;76.70
47618;DHT22;33336;36.728;-4.414;2023-08-06T15:29:53;37.60;76.50
47618;DHT22;33336;36.728;-4.414;2023-08-06T15:34:57;37.10;73.80
47618;DHT22;33336;36.728;-4.414;2023-08-06T15:40:00;37.60;74.50
47618;DHT22;33336;36.728;-4.414;2023-08-06T15:45:04;38.30;71.30
47618;DHT22;33336;36.728;-4.414;2023-08-06T15:50:09;39.00;71.40
47618;DHT22;33336;36.728;-4.414;2023-08-06T15:55:12;38.40;70.20
47618;DHT22;33336;36.728;-4.414;2023-08-06T16:00:16;37.30;68.20
47618;DHT22;33336;36.728;-4.414;2023-08-06T16:05:20;37.00;68.70
47618;DHT22;33336;36.728;-4.414;2023-08-06T16:10:23;38.80;68.90
47618;DHT22;33336;36.728;-4.414;2023-08-06T16:15:26;40.80;66.40
47618;DHT22;33336;36.728;-4.414;2023-08-06T16:20:31;41.60;66.90
47618;DHT22;33336;36.728;-4.414;2023-08-06T16:25:36;42.60;65.60
47618;DHT22;33336;36.728;-4.414;2023-08-06T16:30:43;42.00;64.20
47618;DHT22;33336;36.728;-4.414;2023-08-06T16:35:48;42.50;64.10
47618;DHT22;33336;36.728;-4.414;2023-08-06T16:40:51;42.70;62.50
47618;DHT22;33336;36.728;-4.414;2023-08-06T16:45:54;43.20;64.00
47618;DHT22;33336;36.728;-4.414;2023-08-06T16:50:59;41.80;64.40
47618;DHT22;33336;36.728;-4.414;2023-08-06T16:56:02;42.30;64.20
47618;DHT22;33336;36.728;-4.414;2023-08-06T17:01:06;41.00;64.10
47618;DHT22;33336;36.728;-4.414;2023-08-06T17:06:10;42.10;65.40
47618;DHT22;33336;36.728;-4.414;2023-08-06T17:11:16;42.60;64.60
47618;DHT22;33336;36.728;-4.414;2023-08-06T17:16:19;44.10;63.80
47618;DHT22;33336;36.728;-4.414;2023-08-06T17:21:34;44.30;64.90
47618;DHT22;33336;36.728;-4.414;2023-08-06T17:26:37;45.30;63.30
47618;DHT22;33336;36.728;-4.414;2023-08-06T17:31:40;43.80;63.80
47618;DHT22;33336;36.728;-4.414;2023-08-06T17:36:45;43.10;63.10
47618;DHT22;33336;36.728;-4.414;2023-08-06T17:41:48;41.80;64.80
47618;DHT22;33336;36.728;-4.414;2023-08-06T17:46:51;44.10;64.90
47618;DHT22;33336;36.728;-4.414;2023-08-06T17:51:56;43.80;64.50
47618;DHT22;33336;36.728;-4.414;2023-08-06T17:56:59;43.80;65.50
47618;DHT22;33336;36.728;-4.414;2023-08-06T18:02:06;45.90;64.40
47618;DHT22;33336;36.728;-4.414;2023-08-06T18:07:10;46.10;62.70
47618;DHT22;33336;36.728;-4.414;2023-08-06T18:12:14;46.60;63.20
47618;DHT22;33336;36.728;-4.414;2023-08-06T18:17:18;46.50;61.20
47618;DHT22;33336;36.728;-4.414;2023-08-06T18:22:23;47.10;62.70
47618;DHT22;33336;36.728;-4.414;2023-08-06T18:27:26;47.30;61.80
47618;DHT22;33336;36.728;-4.414;2023-08-06T18:32:29;46.00;62.50
47618;DHT22;33336;36.728;-4.414;2023-08-06T18:37:33;45.10;63.30
47618;DHT22;33336;36.728;-4.414;2023-08-06T18:42:38;44.20;63.80
47618;DHT22;33336;36.728;-4.414;2023-08-06T18:47:42;44.90;64.40
47618;DHT22;33336;36.728;-4.414;2023-08-06T18:52:47;42.60;65.00
47618;DHT22;33336;36.728;-4.414;2023-08-06T18:57:51;42.60;66.10
47618;DHT22;33336;36.728;-4.414;2023-08-06T19:02:54;42.00;66.30
47618;DHT22;33336;36.728;-4.414;2023-08-06T19:07:59;42.10;66.40
47618;DHT22;33336;36.728;-4.414;2023-08-06T19:13:07;40.90;67.10
47618;DHT22;33336;36.728;-4.414;2023-08-06T19:18:10;39.30;68.40
47618;DHT22;33336;36.728;-4.414;2023-08-06T19:23:14;37.60;70.80
47618;DHT22;33336;36.728;-4.414;2023-08-06T19:28:19;37.20;72.20
47618;DHT22;33336;36.728;-4.414;2023-08-06T19:33:22;36.20;73.60
47618;DHT22;33336;36.728;-4.414;2023-08-06T19:38:27;35.90;74.50
47618;DHT22;33336;36.728;-4.414;2023-08-06T19:43:30;35.40;75.40
47618;DHT22;33336;36.728;-4.414;2023-08-06T19:48:33;35.00;76.20
47618;DHT22;33336;36.728;-4.414;2023-08-06T19:53:37;34.70;76.30
47618;DHT22;33336;36.728;-4.414;2023-08-06T19:58:44;34.30;75.40
47618;DHT22;33336;36.728;-4.414;2023-08-06T20:03:47;33.90;76.60
47618;DHT22;33336;36.728;-4.414;2023-08-06T20:08:52;32.80;78.90
47618;DHT22;33336;36.728;-4.414;2023-08-06T20:13:54;31.70;82.10
47618;DHT22;33336;36.728;-4.414;2023-08-06T20:18:58;31.80;82.80
47618;DHT22;33336;36.728;-4.414;2023-08-06T20:24:03;32.40;82.70
47618;DHT22;33336;36.728;-4.414;2023-08-06T20:29:06;32.70;83.00
47618;DHT22;33336;36.728;-4.414;2023-08-06T20:34:09;33.00;82.70
47618;DHT22;33336;36.728;-4.414;2023-08-06T20:39:14;32.90;83.20
47618;DHT22;33336;36.728;-4.414;2023-08-06T20:44:16;32.80;83.70
47618;DHT22;33336;36.728;-4.414;2023-08-06T20:49:20;32.50;84.90
47618;DHT22;33336;36.728;-4.414;2023-08-06T20:54:24;32.70;85.00
47618;DHT22;33336;36.728;-4.414;2023-08-06T20:59:28;32.40;86.70
47618;DHT22;33336;36.728;-4.414;2023-08-06T21:04:31;32.30;87.30
47618;DHT22;33336;36.728;-4.414;2023-08-06T21:09:36;32.30;87.60
47618;DHT22;33336;36.728;-4.414;2023-08-06T21:14:38;32.20;87.30
47618;DHT22;33336;36.728;-4.414;2023-08-06T21:19:42;32.00;87.50
47618;DHT22;33336;36.728;-4.414;2023-08-06T21:24:46;31.80;88.20
47618;DHT22;33336;36.728;-4.414;2023-08-06T21:30:01;31.70;89.60
47618;DHT22;33336;36.728;-4.414;2023-08-06T21:35:04;31.90;89.50
47618;DHT22;33336;36.728;-4.414;2023-08-06T21:40:11;31.80;90.20
47618;DHT22;33336;36.728;-4.414;2023-08-06T21:45:14;31.50;90.60
47618;DHT22;33336;36.728;-4.414;2023-08-06T21:50:17;31.50;91.20
47618;DHT22;33336;36.728;-4.414;2023-08-06T21:55:22;31.40;91.70
47618;DHT22;33336;36.728;-4.414;2023-08-06T22:00:25;31.20;92.70
47618;DHT22;33336;36.728;-4.414;2023-08-06T22:05:28;31.30;93.10
47618;DHT22;33336;36.728;-4.414;2023-08-06T22:10:34;31.10;94.00
47618;DHT22;33336;36.728;-4.414;2023-08-06T22:15:36;31.10;94.40
47618;DHT22;33336;36.728;-4.414;2023-08-06T22:20:40;31.10;94.90
47618;DHT22;33336;36.728;-4.414;2023-08-06T22:25:45;30.90;94.00
47618;DHT22;33336;36.728;-4.414;2023-08-06T22:30:49;30.90;93.10
47618;DHT22;33336;36.728;-4.414;2023-08-06T22:35:52;31.00;92.60
47618;DHT22;33336;36.728;-4.414;2023-08-06T22:40:57;30.30;93.30
47618;DHT22;33336;36.728;-4.414;2023-08-06T22:45:59;29.80;93.70
47618;DHT22;33336;36.728;-4.414;2023-08-06T22:51:03;29.80;92.50
47618;DHT22;33336;36.728;-4.414;2023-08-06T22:56:07;29.70;91.90
47618;DHT22;33336;36.728;-4.414;2023-08-06T23:01:11;29.80;91.70
47618;DHT22;33336;36.728;-4.414;2023-08-06T23:06:14;29.20;92.10
47618;DHT22;33336;36.728;-4.414;2023-08-06T23:11:19;29.70;90.50
47618;DHT22;33336;36.728;-4.414;2023-08-06T23:16:22;29.80;87.90
47618;DHT22;33336;36.728;-4.414;2023-08-06T23:21:26;29.90;84.80
47618;DHT22;33336;36.728;-4.414;2023-08-06T23:26:31;29.80;85.70
47618;DHT22;33336;36.728;-4.414;2023-08-06T23:31:34;29.70;83.20
47618;DHT22;33336;36.728;-4.414;2023-08-06T23:36:37;29.80;84.20
47618;DHT22;33336;36.728;-4.414;2023-08-06T23:41:42;29.50;84.20
47618;DHT22;33336;36.728;-4.414;2023-08-06T23:46:44;29.70;83.00
47618;DHT22;33336;36.728;-4.414;2023-08-06T23:51:48;29.10;81.70
47618;DHT22;33336;36.728;-4.414;2023-08-06T23:56:52;29.50;81.80
